createdAt,value
2022-10-06T00:17:28.390Z,2.03
2022-10-06T00:20:45.375Z,2.67
2022-10-06T00:34:33.294Z,3.67
2022-10-06T00:37:35.575Z,3.45
2022-10-06T00:55:11.079Z,3.73
2022-10-06T01:05:00.598Z,3.60
2022-10-06T01:08:31.172Z,7.25
2022-10-06T01:33:40.419Z,6.07
2022-10-06T01:37:03.124Z,7.35
2022-10-06T01:54:41.540Z,6.22
2022-10-06T01:57:40.864Z,8.27
2022-10-06T02:11:28.988Z,8.57
2022-10-06T02:14:07.562Z,6.85
2022-10-06T02:27:16.104Z,7.57
2022-10-06T02:30:40.150Z,9.60
2022-10-06T02:48:13.911Z,8.63
2022-10-06T03:20:49.475Z,8.52
2022-10-06T03:23:49.871Z,8.85
2022-10-06T03:56:08.779Z,9.75
2022-10-06T04:09:59.373Z,15.95
2022-10-06T04:13:23.144Z,19.17
2022-10-06T04:27:22.807Z,10.07
2022-10-06T04:30:39.911Z,8.82
2022-10-06T04:47:35.448Z,5.03
2022-10-06T05:00:41.650Z,6.22
2022-10-06T05:14:29.313Z,6.45
2022-10-06T05:17:57.754Z,13.80
2022-10-06T05:42:39.561Z,14.57
2022-10-06T06:00:13.477Z,10.82
2022-10-06T06:03:41.077Z,10.65
2022-10-06T06:54:21.577Z,16.90
2022-10-06T07:11:31.138Z,17.23
2022-10-06T07:21:49.853Z,13.77
2022-10-06T07:32:52.874Z,18.07
2022-10-06T07:53:50.048Z,10.32
2022-10-06T08:11:25.911Z,20.33
2022-10-06T08:14:57.260Z,24.30
2022-10-06T08:28:48.468Z,17.10
2022-10-06T08:32:20.081Z,13.18
2022-10-06T08:45:49.327Z,15.18
2022-10-06T08:48:58.287Z,13.45
2022-10-06T09:10:27.294Z,17.58
2022-10-06T09:13:21.980Z,22.10
2022-10-06T09:42:22.859Z,19.27
2022-10-06T09:52:16.472Z,11.02
2022-10-06T09:54:43.710Z,18.90
2022-10-06T09:57:49.119Z,11.98
2022-10-06T10:07:43.508Z,10.68
2022-10-06T10:11:05.696Z,18.65
2022-10-06T10:25:12.110Z,13.90
2022-10-06T10:46:04.101Z,12.95
2022-10-06T11:03:44.473Z,11.95
2022-10-06T11:06:34.769Z,11.85
2022-10-06T11:35:19.117Z,9.32
2022-10-06T11:38:16.089Z,10.38
2022-10-06T11:44:39.882Z,7.93
2022-10-06T11:54:40.263Z,8.52
2022-10-06T12:29:35.115Z,9.85
2022-10-06T12:32:24.549Z,10.35
2022-10-06T12:34:58.946Z,10.18
2022-10-06T12:37:41.613Z,12.20
2022-10-06T12:40:42.022Z,11.27
2022-10-06T12:43:23.385Z,8.98
2022-10-06T12:49:53.807Z,8.98
2022-10-06T12:57:15.643Z,10.23
2022-10-06T12:59:41.997Z,8.52
2022-10-06T13:02:20.605Z,10.02
2022-10-06T13:04:57.281Z,8.63
2022-10-06T13:07:28.926Z,9.52
2022-10-06T13:10:13.840Z,11.85
2022-10-06T13:12:47.138Z,8.52
2022-10-06T13:15:19.489Z,7.57
2022-10-06T13:18:00.151Z,12.00
2022-10-06T13:20:33.320Z,11.57
2022-10-06T13:23:02.984Z,7.20
2022-10-06T13:25:35.093Z,10.48
2022-10-06T13:28:02.389Z,10.43
2022-10-06T13:30:29.116Z,13.30
2022-10-06T13:32:58.126Z,11.63
2022-10-06T13:35:27.330Z,14.57
2022-10-06T13:37:55.200Z,7.13
2022-10-06T13:40:44.496Z,13.40
2022-10-06T13:43:17.918Z,11.55
2022-10-06T13:45:47.236Z,6.05
2022-10-06T13:48:18.727Z,10.00
2022-10-06T13:50:54.152Z,5.75
2022-10-06T13:53:27.228Z,4.40
2022-10-06T13:55:54.577Z,8.18
2022-10-06T13:58:24.669Z,3.63
2022-10-06T14:00:57.146Z,9.27
2022-10-06T14:03:29.357Z,8.75
2022-10-06T14:06:18.940Z,7.00
2022-10-06T14:08:50.805Z,5.95
2022-10-06T14:11:27.865Z,7.15
2022-10-06T14:14:03.067Z,12.68
2022-10-06T14:16:29.857Z,7.72
2022-10-06T14:19:01.725Z,5.78
2022-10-06T14:21:45.586Z,6.25
2022-10-06T14:24:15.025Z,8.60
2022-10-06T14:26:43.626Z,8.05
2022-10-06T14:31:39.148Z,6.80
2022-10-06T14:34:06.020Z,15.43
2022-10-06T14:36:36.350Z,11.23
2022-10-06T14:39:04.728Z,7.93
2022-10-06T14:41:31.749Z,7.18
2022-10-06T14:44:06.032Z,7.22
2022-10-06T14:46:33.468Z,5.07
2022-10-06T14:49:04.644Z,9.55
2022-10-06T14:51:34.441Z,9.38
2022-10-06T14:54:03.634Z,7.47
2022-10-06T14:56:35.223Z,9.67
2022-10-06T14:59:05.544Z,7.57
2022-10-06T15:01:36.775Z,6.85
2022-10-06T15:04:09.688Z,11.68
2022-10-06T15:06:54.729Z,3.70
2022-10-06T15:09:21.462Z,10.48
2022-10-06T15:11:47.877Z,6.13
2022-10-06T15:14:14.591Z,5.25
2022-10-06T15:16:43.641Z,6.15
2022-10-06T15:19:14.290Z,9.07
2022-10-06T15:21:46.979Z,5.80
2022-10-06T15:24:18.683Z,8.85
2022-10-06T15:27:04.910Z,10.07
2022-10-06T15:29:33.475Z,7.25
2022-10-06T15:34:30.387Z,8.15
2022-10-06T15:36:58.161Z,9.10
2022-10-06T15:39:27.300Z,11.32
2022-10-06T15:41:54.355Z,10.82
2022-10-06T15:44:21.466Z,11.52
2022-10-06T15:46:49.314Z,6.75
2022-10-06T15:49:24.361Z,9.88
2022-10-06T15:51:56.903Z,5.72
2022-10-06T15:54:39.360Z,5.93
2022-10-06T15:57:15.073Z,8.00
2022-10-06T15:59:44.472Z,6.13
2022-10-06T16:02:16.053Z,11.35
2022-10-06T16:04:43.327Z,8.80
2022-10-06T16:07:17.857Z,9.95
2022-10-06T16:09:49.211Z,17.55
2022-10-06T16:12:21.503Z,8.30
2022-10-06T16:14:48.516Z,10.88
2022-10-06T16:17:15.480Z,10.38
2022-10-06T16:19:42.602Z,6.75
2022-10-06T16:22:12.148Z,5.72
2022-10-06T16:24:38.992Z,9.25
2022-10-06T16:27:08.816Z,7.38
2022-10-06T16:29:36.197Z,10.60
2022-10-06T16:32:02.667Z,10.20
2022-10-06T16:34:31.382Z,10.20
2022-10-06T16:37:07.333Z,11.02
2022-10-06T16:39:33.789Z,7.80
2022-10-06T16:42:01.111Z,11.82
2022-10-06T16:44:27.398Z,6.50
2022-10-06T16:46:54.001Z,12.48
2022-10-06T16:49:21.273Z,8.27
2022-10-06T16:51:48.897Z,5.20
2022-10-06T16:54:17.285Z,5.43
2022-10-06T16:56:48.912Z,9.10
2022-10-06T16:59:20.215Z,9.27
2022-10-06T17:01:47.749Z,7.30
2022-10-06T17:04:20.089Z,5.40
2022-10-06T17:06:56.696Z,5.70
2022-10-06T17:09:25.858Z,6.07
2022-10-06T17:12:00.729Z,9.35
2022-10-06T17:14:29.257Z,9.38
2022-10-06T17:19:27.249Z,7.25
2022-10-06T17:21:58.498Z,11.93
2022-10-06T17:24:27.736Z,12.35
2022-10-06T17:29:21.959Z,8.25
2022-10-06T17:31:51.041Z,10.77
2022-10-06T17:34:21.857Z,8.93
2022-10-06T17:36:51.783Z,18.08
2022-10-06T17:39:21.157Z,13.02
2022-10-06T17:41:49.755Z,10.35
2022-10-06T17:46:48.136Z,6.97
2022-10-06T17:49:16.367Z,10.02
2022-10-06T17:51:45.816Z,6.80
2022-10-06T17:54:16.890Z,10.05
2022-10-06T17:56:45.822Z,8.70
2022-10-06T17:59:18.361Z,9.55
2022-10-06T18:01:45.309Z,10.02
2022-10-06T18:04:17.316Z,11.02
2022-10-06T18:06:48.478Z,9.45
2022-10-06T18:09:15.764Z,10.90
2022-10-06T18:11:44.478Z,7.80
2022-10-06T18:14:13.272Z,11.80
2022-10-06T18:16:45.809Z,11.23
2022-10-06T18:19:26.223Z,13.50
2022-10-06T18:21:56.253Z,8.15
2022-10-06T18:24:25.589Z,10.95
2022-10-06T18:26:54.140Z,17.60
2022-10-06T18:31:50.619Z,11.75
2022-10-06T18:37:04.472Z,10.55
2022-10-06T18:39:31.956Z,9.60
2022-10-06T18:42:02.394Z,12.50
2022-10-06T18:44:47.547Z,8.90
2022-10-06T18:47:33.099Z,9.75
2022-10-06T18:49:59.495Z,10.43
2022-10-06T18:52:26.011Z,15.93
2022-10-06T18:54:54.687Z,22.30
2022-10-06T18:59:54.965Z,14.43
2022-10-06T19:02:21.358Z,14.82
2022-10-06T19:04:49.023Z,10.40
2022-10-06T19:07:18.486Z,12.63
2022-10-06T19:09:46.809Z,12.50
2022-10-06T19:14:46.857Z,13.75
2022-10-06T19:17:15.430Z,14.80
2022-10-06T19:22:14.140Z,14.90
2022-10-06T19:24:43.793Z,16.90
2022-10-06T19:27:12.774Z,12.85
2022-10-06T19:29:45.534Z,12.65
2022-10-06T19:32:15.299Z,14.40
2022-10-06T19:34:42.223Z,15.80
2022-10-06T19:37:08.713Z,19.88
2022-10-06T19:39:40.298Z,15.73
2022-10-06T19:42:28.371Z,17.85
2022-10-06T19:44:57.262Z,16.98
2022-10-06T19:47:25.115Z,17.48
2022-10-06T19:49:57.039Z,17.45
2022-10-06T19:52:25.009Z,13.88
2022-10-06T19:54:52.672Z,12.38
2022-10-06T19:57:18.955Z,15.67
2022-10-06T19:59:49.717Z,18.35
2022-10-06T20:02:16.827Z,21.55
2022-10-06T20:04:43.432Z,20.42
2022-10-06T20:07:09.743Z,19.15
2022-10-06T20:09:36.115Z,19.52
2022-10-06T20:12:02.462Z,16.08
2022-10-06T20:14:31.051Z,15.32
2022-10-06T20:19:25.368Z,20.30
2022-10-06T20:21:53.867Z,14.63
2022-10-06T20:24:23.042Z,18.23
2022-10-06T20:26:53.069Z,19.35
2022-10-06T20:29:25.488Z,20.42
2022-10-06T20:32:02.259Z,12.32
2022-10-06T20:34:33.218Z,12.57
2022-10-06T20:37:04.989Z,17.20
2022-10-06T20:39:51.919Z,13.80
2022-10-06T20:42:19.927Z,16.55
2022-10-06T20:44:46.870Z,13.10
2022-10-06T20:47:14.161Z,14.15
2022-10-06T20:49:42.403Z,17.73
2022-10-06T20:52:14.027Z,10.68
2022-10-06T20:54:41.099Z,14.00
2022-10-06T20:57:09.440Z,17.00
2022-10-06T20:59:41.644Z,13.80
2022-10-06T21:02:12.002Z,12.07
2022-10-06T21:04:41.893Z,14.13
2022-10-06T21:07:08.441Z,12.13
2022-10-06T21:09:34.887Z,21.08
2022-10-06T21:12:05.304Z,15.05
2022-10-06T21:14:31.875Z,14.48
2022-10-06T21:16:58.384Z,13.82
2022-10-06T21:19:29.325Z,15.10
2022-10-06T21:21:56.332Z,15.55
2022-10-06T21:24:22.903Z,10.73
2022-10-06T21:26:52.387Z,9.77
2022-10-06T21:29:20.566Z,13.20
2022-10-06T21:31:49.158Z,12.82
2022-10-06T21:36:45.299Z,14.57
2022-10-06T21:39:13.535Z,10.90
2022-10-06T21:41:41.121Z,10.93
2022-10-06T21:44:14.413Z,10.18
2022-10-06T21:46:56.325Z,11.07
2022-10-06T21:49:28.630Z,11.68
2022-10-06T21:51:56.448Z,9.63
2022-10-06T21:54:26.945Z,18.60
2022-10-06T21:56:53.632Z,13.82
2022-10-06T21:59:20.534Z,11.10
2022-10-06T22:01:50.350Z,11.15
2022-10-06T22:04:17.166Z,11.07
2022-10-06T22:06:45.611Z,8.98
2022-10-06T22:09:15.583Z,14.65
2022-10-06T22:11:43.112Z,10.63
2022-10-06T22:14:15.275Z,10.73
2022-10-06T22:16:42.348Z,10.45
2022-10-06T22:19:11.757Z,10.50
2022-10-06T22:21:43.108Z,10.00
2022-10-06T22:24:12.171Z,8.90
2022-10-06T22:26:42.304Z,7.30
2022-10-06T22:29:12.488Z,6.72
2022-10-06T22:31:40.969Z,8.93
2022-10-06T22:36:35.341Z,8.90
2022-10-06T22:39:02.688Z,11.20
2022-10-06T22:41:29.500Z,9.45
2022-10-06T22:43:57.916Z,13.45
2022-10-06T22:46:26.144Z,15.10
2022-10-06T22:48:53.107Z,11.27
2022-10-06T22:51:19.585Z,9.32
2022-10-06T22:53:46.581Z,6.43
2022-10-06T22:56:13.419Z,14.05
2022-10-06T22:58:40.061Z,8.73
2022-10-06T23:01:11.671Z,19.35
2022-10-06T23:03:39.217Z,9.07
2022-10-06T23:06:06.844Z,13.38
2022-10-06T23:08:35.341Z,10.50
2022-10-06T23:11:10.975Z,12.77
2022-10-06T23:13:37.597Z,8.10
2022-10-06T23:16:07.983Z,11.32
2022-10-06T23:18:37.015Z,9.60
2022-10-06T23:21:09.274Z,12.52
2022-10-06T23:23:36.741Z,13.65
2022-10-06T23:26:05.570Z,9.70
2022-10-06T23:28:32.999Z,10.40
2022-10-06T23:30:59.707Z,12.07
2022-10-06T23:33:28.887Z,8.48
2022-10-06T23:36:00.003Z,10.52
2022-10-06T23:38:27.337Z,10.23
2022-10-06T23:40:54.783Z,9.27
2022-10-06T23:43:22.962Z,9.43
2022-10-06T23:45:50.400Z,6.97
2022-10-06T23:48:17.741Z,12.20
2022-10-06T23:50:55.300Z,8.20
2022-10-06T23:53:21.763Z,9.40
2022-10-06T23:55:48.428Z,10.60
2022-10-06T23:58:14.858Z,13.02
